createdAt,value
2022-11-09T05:17:39.788Z,17.60
2022-11-09T05:20:07.041Z,20.10
2022-11-09T05:22:52.141Z,20.45
2022-11-09T05:25:18.544Z,14.00
2022-11-09T05:27:45.107Z,15.35
2022-11-09T05:30:11.983Z,15.27
2022-11-09T05:32:39.701Z,14.27
2022-11-09T05:35:06.808Z,15.27
2022-11-09T05:37:33.263Z,14.30
2022-11-09T05:39:59.701Z,14.00
2022-11-09T05:42:26.232Z,14.73
2022-11-09T05:44:52.645Z,13.35
2022-11-09T05:47:20.150Z,15.25
2022-11-09T05:49:48.940Z,20.42
2022-11-09T05:52:15.422Z,15.18
2022-11-09T05:54:41.931Z,18.80
2022-11-09T05:57:08.413Z,20.25
2022-11-09T05:59:34.879Z,19.10
2022-11-09T06:02:01.318Z,21.27
2022-11-09T06:04:27.786Z,21.15
2022-11-09T06:06:54.267Z,18.52
2022-11-09T06:09:20.732Z,17.13
2022-11-09T06:11:47.135Z,22.27
2022-11-09T06:14:13.655Z,16.42
2022-11-09T06:16:40.069Z,17.15
2022-11-09T06:19:06.537Z,22.45
2022-11-09T06:21:32.980Z,22.00
2022-11-09T06:23:59.402Z,18.15
2022-11-09T06:26:25.842Z,19.52
2022-11-09T06:28:52.323Z,20.02
2022-11-09T06:31:20.556Z,22.60
2022-11-09T06:33:48.200Z,20.42
2022-11-09T06:36:14.823Z,18.48
2022-11-09T06:38:41.430Z,18.77
2022-11-09T06:41:09.258Z,20.70
2022-11-09T06:43:35.929Z,18.98
2022-11-09T06:46:04.317Z,18.85
2022-11-09T06:48:30.845Z,16.23
2022-11-09T06:51:03.904Z,20.33
2022-11-09T06:53:34.945Z,21.70
2022-11-09T06:56:03.066Z,18.80
2022-11-09T06:58:30.210Z,19.88
2022-11-09T07:00:56.925Z,20.83
2022-11-09T07:03:24.535Z,21.33
2022-11-09T07:06:09.556Z,23.00
2022-11-09T07:08:38.009Z,22.40
2022-11-09T07:11:11.284Z,21.70
2022-11-09T07:13:38.700Z,26.45
2022-11-09T07:16:06.623Z,26.35
2022-11-09T07:18:33.839Z,24.85
2022-11-09T07:21:00.581Z,25.23
2022-11-09T07:23:27.148Z,21.90
2022-11-09T07:25:53.919Z,23.85
2022-11-09T07:28:20.400Z,23.95
2022-11-09T07:30:50.288Z,21.67
2022-11-09T07:33:22.627Z,22.08
2022-11-09T07:35:49.417Z,21.42
2022-11-09T07:38:41.556Z,22.90
2022-11-09T07:41:08.075Z,21.33
2022-11-09T07:43:34.555Z,20.77
2022-11-09T07:46:05.208Z,23.50
2022-11-09T07:48:31.795Z,18.80
2022-11-09T07:51:01.518Z,24.55
2022-11-09T07:53:28.009Z,22.58
2022-11-09T07:55:59.504Z,24.80
2022-11-09T07:58:26.648Z,24.55
2022-11-09T08:00:53.123Z,21.92
2022-11-09T08:03:36.517Z,22.15
2022-11-09T08:06:03.118Z,21.58
2022-11-09T08:08:29.579Z,28.52
2022-11-09T08:10:57.348Z,20.70
2022-11-09T08:13:24.462Z,22.23
2022-11-09T08:15:51.196Z,21.45
2022-11-09T08:18:21.475Z,21.73
2022-11-09T08:20:48.925Z,19.98
2022-11-09T08:23:17.826Z,19.98
2022-11-09T08:25:44.626Z,21.25
2022-11-09T08:28:14.691Z,20.15
2022-11-09T08:30:46.426Z,18.00
2022-11-09T08:33:13.333Z,21.20
2022-11-09T08:35:39.835Z,19.10
2022-11-09T08:38:09.360Z,19.38
2022-11-09T08:40:35.803Z,16.58
2022-11-09T08:43:04.595Z,20.05
2022-11-09T08:45:36.143Z,17.23
2022-11-09T08:48:04.097Z,17.52
2022-11-09T08:50:34.705Z,15.30
2022-11-09T08:53:02.350Z,19.85
2022-11-09T08:55:29.667Z,15.18
2022-11-09T08:57:58.026Z,11.65
2022-11-09T09:00:25.158Z,13.93
2022-11-09T09:02:51.796Z,10.30
2022-11-09T09:05:18.451Z,10.13
2022-11-09T09:07:45.030Z,11.48
2022-11-09T09:10:12.082Z,10.38
2022-11-09T09:12:38.708Z,9.93
2022-11-09T09:15:05.681Z,8.98
2022-11-09T09:17:32.282Z,10.18
2022-11-09T09:19:58.971Z,8.00
2022-11-09T09:22:25.581Z,7.28
2022-11-09T09:24:52.089Z,7.70
2022-11-09T09:27:21.784Z,7.53
2022-11-09T09:29:52.363Z,4.70
2022-11-09T09:32:18.870Z,4.55
2022-11-09T09:34:45.346Z,6.05
2022-11-09T09:37:11.805Z,4.97
2022-11-09T09:39:38.307Z,5.65
2022-11-09T09:42:08.607Z,5.80
2022-11-09T09:44:44.931Z,4.28
2022-11-09T09:47:17.538Z,3.60
2022-11-09T09:49:49.775Z,5.30
2022-11-09T09:52:38.144Z,4.43
2022-11-09T09:55:18.853Z,3.90
2022-11-09T09:57:52.830Z,4.25
2022-11-09T10:00:27.878Z,3.58
2022-11-09T10:02:56.504Z,7.68
2022-11-09T10:05:46.423Z,2.78
2022-11-09T10:08:32.763Z,3.53
2022-11-09T10:11:27.301Z,2.70
2022-11-09T10:16:48.044Z,4.25
2022-11-09T10:19:17.478Z,3.38
2022-11-09T10:21:52.030Z,2.95
2022-11-09T10:25:12.857Z,2.38
2022-11-09T10:28:03.905Z,4.72
2022-11-09T10:30:30.617Z,2.03
2022-11-09T10:33:06.226Z,3.80
2022-11-09T10:35:38.104Z,1.20
2022-11-09T10:38:04.585Z,0.90
2022-11-09T10:40:40.420Z,0.85
2022-11-09T10:43:25.637Z,7.50
2022-11-09T10:46:10.893Z,3.03
2022-11-09T10:48:55.954Z,2.60
2022-11-09T10:51:46.311Z,3.47
2022-11-09T10:54:35.327Z,3.35
2022-11-09T10:57:23.128Z,1.75
2022-11-09T11:00:54.650Z,0.95
2022-11-09T11:03:41.538Z,1.70
2022-11-09T11:06:31.326Z,2.53
2022-11-09T11:09:20.928Z,3.88
2022-11-09T11:12:20.423Z,0.50
2022-11-09T11:15:23.896Z,4.05
2022-11-09T11:18:17.606Z,1.25
2022-11-09T11:21:18.415Z,3.83
2022-11-09T11:24:15.485Z,0.75
2022-11-09T11:27:10.471Z,4.55
2022-11-09T11:30:13.907Z,2.35
2022-11-09T11:33:15.033Z,2.53
2022-11-09T11:36:26.789Z,1.83
2022-11-09T11:39:44.121Z,2.88
2022-11-09T11:42:47.323Z,1.80
2022-11-09T11:45:41.209Z,0.40
2022-11-09T11:48:50.862Z,1.20
2022-11-09T11:51:43.001Z,2.50
2022-11-09T11:54:37.177Z,1.75
2022-11-09T11:57:57.784Z,0.60
2022-11-09T12:01:08.995Z,1.17
2022-11-09T12:04:05.782Z,1.80
2022-11-09T12:07:05.329Z,0.88
2022-11-09T12:10:10.464Z,1.15
2022-11-09T12:12:55.341Z,2.17
2022-11-09T12:16:02.397Z,1.30
2022-11-09T12:19:00.168Z,0.90
2022-11-09T12:22:01.263Z,1.60
2022-11-09T12:25:11.202Z,1.17
2022-11-09T12:28:24.202Z,3.75
2022-11-09T12:31:40.784Z,2.95
2022-11-09T12:34:46.657Z,6.65
2022-11-09T12:37:39.780Z,1.75
2022-11-09T12:40:29.898Z,4.95
2022-11-09T12:43:28.240Z,1.70
2022-11-09T12:46:17.470Z,2.63
2022-11-09T12:49:05.204Z,1.60
2022-11-09T12:51:52.346Z,2.40
2022-11-09T12:54:46.427Z,1.13
2022-11-09T12:57:33.276Z,0.63
2022-11-09T13:00:44.206Z,4.88
2022-11-09T13:03:32.598Z,1.65
2022-11-09T13:06:32.842Z,4.78
2022-11-09T13:09:24.462Z,3.58
2022-11-09T13:12:19.221Z,1.70
2022-11-09T13:18:35.497Z,1.05
2022-11-09T13:21:20.842Z,3.60
2022-11-09T13:24:30.763Z,0.90
2022-11-09T13:27:49.696Z,2.90
2022-11-09T13:30:41.873Z,1.92
2022-11-09T13:33:28.398Z,3.78
2022-11-09T13:36:16.569Z,3.13
2022-11-09T13:39:24.468Z,2.60
2022-11-09T13:42:26.747Z,3.25
2022-11-09T13:45:35.523Z,0.70
2022-11-09T13:48:50.712Z,1.48
2022-11-09T13:51:35.766Z,1.45
2022-11-09T13:54:29.939Z,2.72
2022-11-09T13:57:16.539Z,3.17
2022-11-09T14:00:04.463Z,0.30
2022-11-09T14:03:21.675Z,3.80
2022-11-09T14:06:06.947Z,4.13
2022-11-09T14:08:52.560Z,4.65
2022-11-09T14:11:58.833Z,2.83
2022-11-09T14:14:59.224Z,1.48
2022-11-09T14:17:53.573Z,6.28
2022-11-09T14:20:43.128Z,3.22
2022-11-09T14:23:30.439Z,4.00
2022-11-09T14:26:22.003Z,4.38
2022-11-09T14:29:46.366Z,3.13
2022-11-09T14:32:36.921Z,1.70
2022-11-09T14:35:36.386Z,1.70
2022-11-09T14:38:31.693Z,2.95
2022-11-09T14:41:22.602Z,4.32
2022-11-09T14:44:16.229Z,1.48
2022-11-09T14:47:10.265Z,1.45
2022-11-09T14:49:55.827Z,1.35
2022-11-09T14:52:41.199Z,3.22
2022-11-09T14:55:27.189Z,3.53
2022-11-09T14:58:14.052Z,3.03
2022-11-09T15:01:08.656Z,2.67
2022-11-09T15:04:27.005Z,3.53
2022-11-09T15:07:20.227Z,2.05
2022-11-09T15:10:08.010Z,2.17
2022-11-09T15:12:56.398Z,1.08
2022-11-09T15:15:41.808Z,3.75
2022-11-09T15:18:34.028Z,2.05
2022-11-09T15:25:55.696Z,4.70
2022-11-09T15:28:46.698Z,5.03
2022-11-09T15:31:31.977Z,1.50
2022-11-09T15:34:24.507Z,2.40
2022-11-09T15:37:30.255Z,2.55
2022-11-09T15:40:23.828Z,1.38
2022-11-09T15:43:08.890Z,3.53
2022-11-09T15:45:55.434Z,3.88
2022-11-09T15:48:45.725Z,1.90
2022-11-09T15:51:31.286Z,3.75
2022-11-09T15:54:17.084Z,3.72
2022-11-09T15:57:03.519Z,2.22
2022-11-09T15:59:50.642Z,5.38
2022-11-09T16:02:35.591Z,3.45
2022-11-09T16:05:27.709Z,8.82
2022-11-09T16:08:13.276Z,3.45
2022-11-09T16:11:03.697Z,3.25
2022-11-09T16:14:17.643Z,2.90
2022-11-09T16:17:03.312Z,2.88
2022-11-09T16:19:51.643Z,1.15
2022-11-09T16:22:37.550Z,2.30
2022-11-09T16:25:22.916Z,4.82
2022-11-09T16:28:08.036Z,2.95
2022-11-09T16:30:53.128Z,2.83
2022-11-09T16:33:39.685Z,5.55
2022-11-09T16:36:28.461Z,5.50
2022-11-09T16:39:17.021Z,1.98
2022-11-09T16:42:05.813Z,3.83
2022-11-09T16:44:51.046Z,1.05
2022-11-09T16:47:43.924Z,3.40
2022-11-09T16:50:32.195Z,4.75
2022-11-09T16:53:18.026Z,2.72
2022-11-09T16:56:04.972Z,3.78
2022-11-09T16:58:50.033Z,3.50
2022-11-09T17:01:36.176Z,3.88
2022-11-09T17:04:21.630Z,7.50
2022-11-09T17:07:09.911Z,3.25
2022-11-09T17:09:54.881Z,2.10
2022-11-09T17:12:40.423Z,2.78
2022-11-09T17:15:25.910Z,0.88
2022-11-09T17:18:11.883Z,2.10
2022-11-09T17:20:57.054Z,1.73
2022-11-09T17:23:43.031Z,2.65
2022-11-09T17:26:28.091Z,1.73
2022-11-09T17:29:14.911Z,1.58
2022-11-09T17:31:59.798Z,1.85
2022-11-09T17:34:44.920Z,4.38
2022-11-09T17:37:34.737Z,5.78
2022-11-09T17:40:21.273Z,2.70
2022-11-09T17:43:06.066Z,0.82
2022-11-09T17:46:27.688Z,0.90
2022-11-09T17:49:12.888Z,1.67
2022-11-09T17:51:58.081Z,3.58
2022-11-09T17:54:43.369Z,1.73
2022-11-09T17:57:28.773Z,1.83
2022-11-09T18:00:14.923Z,3.65
2022-11-09T18:03:00.144Z,1.42
2022-11-09T18:05:45.743Z,3.78
2022-11-09T18:08:31.196Z,2.35
2022-11-09T18:11:17.760Z,4.40
2022-11-09T18:14:03.498Z,5.97
2022-11-09T18:16:48.705Z,5.75
2022-11-09T18:19:36.235Z,3.38
2022-11-09T18:22:21.217Z,2.17
2022-11-09T18:25:06.820Z,4.88
2022-11-09T18:27:52.518Z,13.65
2022-11-09T18:30:41.527Z,7.03
2022-11-09T18:33:26.829Z,3.60
2022-11-09T18:36:15.577Z,4.57
2022-11-09T18:39:03.004Z,2.22
2022-11-09T18:41:48.066Z,5.82
2022-11-09T18:44:33.389Z,5.22
2022-11-09T18:47:18.644Z,6.05
2022-11-09T18:50:04.480Z,3.83
2022-11-09T18:52:49.439Z,6.43
2022-11-09T18:59:42.447Z,4.47
2022-11-09T19:02:34.609Z,7.47
2022-11-09T19:05:20.083Z,3.13
2022-11-09T19:12:18.815Z,3.70
2022-11-09T19:15:04.504Z,8.85
2022-11-09T19:17:50.032Z,2.90
2022-11-09T19:20:38.413Z,7.05
2022-11-09T19:23:23.898Z,5.53
2022-11-09T19:26:09.156Z,3.17
2022-11-09T19:28:54.428Z,3.92
2022-11-09T19:31:43.746Z,11.45
2022-11-09T19:34:29.370Z,4.20
2022-11-09T19:37:14.631Z,5.82
2022-11-09T19:39:59.741Z,4.80
2022-11-09T19:42:44.755Z,5.43
2022-11-09T19:45:30.196Z,6.85
2022-11-09T19:48:15.233Z,5.68
2022-11-09T19:51:01.891Z,5.82
2022-11-09T19:53:53.250Z,2.10
2022-11-09T19:56:38.851Z,3.08
2022-11-09T19:59:24.329Z,1.50
2022-11-09T20:02:10.416Z,7.00
2022-11-09T20:04:55.550Z,7.13
2022-11-09T20:07:41.077Z,6.03
2022-11-09T20:10:26.888Z,3.15
2022-11-09T20:13:12.680Z,5.30
2022-11-09T20:16:02.906Z,5.13
2022-11-09T20:21:46.454Z,3.28
2022-11-09T20:24:31.836Z,2.72
2022-11-09T20:27:16.830Z,4.60
2022-11-09T20:30:04.410Z,6.70
2022-11-09T20:32:49.425Z,4.88
2022-11-09T20:35:34.533Z,6.07
2022-11-09T20:38:20.967Z,4.05
2022-11-09T20:41:08.065Z,3.63
2022-11-09T20:43:53.798Z,9.63
2022-11-09T20:46:38.854Z,6.47
2022-11-09T20:49:24.079Z,5.53
2022-11-09T20:52:09.279Z,4.55
2022-11-09T20:54:57.114Z,4.85
2022-11-09T20:57:42.312Z,5.30
2022-11-09T21:00:27.727Z,7.85
2022-11-09T21:03:12.883Z,12.40
2022-11-09T21:06:02.733Z,8.93
2022-11-09T21:08:53.343Z,4.07
2022-11-09T21:11:57.440Z,8.50
2022-11-09T21:14:42.774Z,7.45
2022-11-09T21:17:29.040Z,6.78
2022-11-09T21:20:14.829Z,5.97
2022-11-09T21:23:12.092Z,9.07
2022-11-09T21:26:18.367Z,2.90
2022-11-09T21:29:22.374Z,5.22
2022-11-09T21:32:08.508Z,8.63
2022-11-09T21:34:53.690Z,3.42
2022-11-09T21:37:38.849Z,7.97
2022-11-09T21:40:24.622Z,5.40
2022-11-09T21:43:10.738Z,8.45
2022-11-09T21:45:55.925Z,4.05
2022-11-09T21:48:41.342Z,6.38
2022-11-09T21:51:26.314Z,5.60
2022-11-09T21:54:11.556Z,4.28
2022-11-09T21:56:56.895Z,7.80
2022-11-09T21:59:42.213Z,6.65
2022-11-09T22:02:27.460Z,4.03
2022-11-09T22:05:12.513Z,5.53
2022-11-09T22:07:57.546Z,6.07
2022-11-09T22:10:42.537Z,4.30
2022-11-09T22:13:46.281Z,11.05
2022-11-09T22:16:34.042Z,3.88
2022-11-09T22:19:37.897Z,6.32
2022-11-09T22:22:23.130Z,9.40
2022-11-09T22:25:08.626Z,10.40
2022-11-09T22:27:53.964Z,5.47
2022-11-09T22:30:39.183Z,8.57
2022-11-09T22:33:27.284Z,5.80
2022-11-09T22:36:14.274Z,6.20
2022-11-09T22:38:59.749Z,13.55
2022-11-09T22:41:44.793Z,7.90
2022-11-09T22:44:29.959Z,5.53
2022-11-09T22:47:15.155Z,7.90
2022-11-09T22:50:00.040Z,6.47
2022-11-09T22:52:44.992Z,5.82
2022-11-09T22:55:29.979Z,8.32
2022-11-09T22:58:15.372Z,7.90
